Time;durP1;ratioP1;P1;durP2;ratioP2;P2;SDS_P1;SDS_P2;PMS_P1;PMS_P2;Temp;Humidity;BMP_temperature;BMP_pressure;BME280_temperature;BME280_humidity;BME280_pressure;Samples;Min_cycle;Max_cycle;Signal;HPM_P1;HPM_P2
2021/04/20 00:01:37;;;;;;;64.95;33.58;;;;;;;6.12;100.00;97837.19;5074712;28;20071;-80
2021/04/20 00:04:04;;;;;;;66.38;34.58;;;;;;;5.91;100.00;97821.50;5074379;28;20048;-79
2021/04/20 00:06:32;;;;;;;65.03;33.70;;;;;;;5.84;100.00;97832.53;5075106;28;20051;-81
2021/04/20 00:08:58;;;;;;;70.07;33.92;;;;;;;5.73;100.00;97827.50;5057331;28;20408;-80
2021/04/20 00:11:25;;;;;;;74.50;34.92;;;;;;;5.71;100.00;97835.84;5074991;28;20056;-79
2021/04/20 00:13:51;;;;;;;74.95;36.85;;;;;;;5.68;100.00;97823.75;5074258;28;20496;-80
2021/04/20 00:16:17;;;;;;;74.07;36.38;;;;;;;5.57;100.00;97821.44;5073673;28;20036;-79
2021/04/20 00:18:43;;;;;;;76.47;35.92;;;;;;;5.47;100.00;97818.81;5075082;28;20107;-81
2021/04/20 00:21:10;;;;;;;72.30;35.80;;;;;;;5.31;100.00;97809.22;5075227;28;20045;-81
2021/04/20 00:23:36;;;;;;;80.70;39.08;;;;;;;5.32;100.00;97819.69;5074460;28;20478;-81
2021/04/20 00:26:02;;;;;;;79.53;37.38;;;;;;;5.37;100.00;97818.84;5074344;28;20458;-79
2021/04/20 00:28:28;;;;;;;81.40;37.35;;;;;;;5.42;100.00;97827.69;5080394;28;20415;-79
2021/04/20 00:30:55;;;;;;;78.97;38.58;;;;;;;5.47;100.00;97838.38;5075310;28;20052;-80
2021/04/20 00:33:22;;;;;;;77.25;36.95;;;;;;;5.58;100.00;97833.75;5074186;28;20709;-80
2021/04/20 00:35:48;;;;;;;80.55;37.72;;;;;;;5.60;100.00;97831.63;5073896;28;20063;-79
2021/04/20 00:38:14;;;;;;;82.80;39.25;;;;;;;5.57;100.00;97827.59;5082205;28;20044;-79
2021/04/20 00:40:41;;;;;;;85.25;39.28;;;;;;;5.54;100.00;97825.47;5072924;28;20116;-80
2021/04/20 00:43:07;;;;;;;79.82;36.78;;;;;;;5.63;100.00;97826.47;5072542;28;20093;-80
2021/04/20 00:45:35;;;;;;;68.32;35.38;;;;;;;5.65;100.00;97824.31;5074156;28;20062;-80
2021/04/20 00:48:02;;;;;;;71.30;35.63;;;;;;;5.55;100.00;97813.63;5074361;28;20041;-80
2021/04/20 00:50:35;;;;;;;72.00;35.78;;;;;;;5.57;100.00;97813.38;5073899;28;20047;-80
2021/04/20 00:53:01;;;;;;;80.68;36.13;;;;;;;5.52;100.00;97806.13;5073522;28;20044;-80
2021/04/20 00:55:28;;;;;;;72.97;35.90;;;;;;;5.49;100.00;97824.69;5074208;28;20118;-80
2021/04/20 00:57:55;;;;;;;74.20;35.50;;;;;;;5.45;100.00;97818.25;5072270;28;20114;-81
2021/04/20 01:00:27;;;;;;;73.57;36.22;;;;;;;5.46;100.00;97814.50;5074242;28;20063;-80
2021/04/20 01:02:54;;;;;;;76.55;37.22;;;;;;;5.58;100.00;97817.66;5072636;28;20055;-80
2021/04/20 01:05:28;;;;;;;68.57;34.70;;;;;;;5.56;100.00;97815.25;5073959;28;20045;-79
2021/04/20 01:08:00;;;;;;;71.95;35.60;;;;;;;5.62;100.00;97816.03;5074191;28;20036;-80
2021/04/20 01:10:27;;;;;;;68.85;34.08;;;;;;;5.66;100.00;97811.69;5073746;28;20045;-81
2021/04/20 01:12:53;;;;;;;71.68;35.40;;;;;;;5.73;100.00;97809.50;5074325;28;20045;-78
2021/04/20 01:15:20;;;;;;;71.43;35.38;;;;;;;5.81;100.00;97813.50;5074276;28;20047;-81
2021/04/20 01:17:46;;;;;;;71.07;34.85;;;;;;;5.70;100.00;97806.59;5079645;28;20040;-81
2021/04/20 01:20:13;;;;;;;69.95;35.53;;;;;;;5.77;100.00;97807.06;5093980;28;20037;-81
2021/04/20 01:22:41;;;;;;;83.32;38.03;;;;;;;5.82;100.00;97815.09;5093666;28;20044;-80
2021/04/20 01:25:13;;;;;;;79.25;38.30;;;;;;;5.93;100.00;97808.59;5090838;28;20045;-81
2021/04/20 01:27:39;;;;;;;77.20;38.88;;;;;;;5.89;100.00;97802.97;5088579;28;20040;-80
2021/04/20 01:30:08;;;;;;;79.70;38.90;;;;;;;5.90;100.00;97809.16;5090003;28;20059;-82
2021/04/20 01:32:39;;;;;;;77.22;36.40;;;;;;;5.96;100.00;97808.03;5088672;28;20051;-81
2021/04/20 01:35:08;;;;;;;69.05;34.72;;;;;;;5.97;100.00;97810.44;5081660;28;20055;-81
2021/04/20 01:37:35;;;;;;;74.60;36.33;;;;;;;5.89;100.00;97815.59;5078359;28;20462;-81
2021/04/20 01:40:03;;;;;;;61.63;31.27;;;;;;;5.86;100.00;97811.59;5082173;28;20044;-80
2021/04/20 01:42:30;;;;;;;67.53;34.17;;;;;;;5.81;100.00;97803.53;5080031;28;20044;-80
2021/04/20 01:44:56;;;;;;;68.45;34.20;;;;;;;5.75;100.00;97801.16;5079245;28;20044;-80
2021/04/20 01:47:26;;;;;;;69.78;33.53;;;;;;;5.74;100.00;97795.00;5078732;28;20066;-78
2021/04/20 01:49:54;;;;;;;69.18;34.78;;;;;;;5.81;100.00;97800.06;5081523;28;20072;-80
2021/04/20 01:52:20;;;;;;;70.05;34.88;;;;;;;5.84;100.00;97797.59;5084877;28;20055;-79
2021/04/20 01:54:46;;;;;;;71.05;36.35;;;;;;;5.87;100.00;97794.38;5081968;28;20048;-79
2021/04/20 01:57:15;;;;;;;76.55;37.20;;;;;;;5.86;100.00;97803.53;5083743;28;20048;-80
2021/04/20 01:59:41;;;;;;;83.45;38.47;;;;;;;5.87;100.00;97801.66;5086021;28;20048;-79
2021/04/20 02:02:07;;;;;;;92.20;42.15;;;;;;;5.87;100.00;97790.91;5082291;28;20110;-81
2021/04/20 02:04:34;;;;;;;109.43;45.42;;;;;;;6.01;100.00;97794.56;5078663;28;20048;-81
2021/04/20 02:07:00;;;;;;;119.57;51.22;;;;;;;6.08;100.00;97789.66;5079420;28;20032;-80
2021/04/20 02:09:27;;;;;;;126.85;53.08;;;;;;;6.21;100.00;97792.50;5078839;28;20055;-80
2021/04/20 02:11:53;;;;;;;134.25;56.90;;;;;;;6.22;100.00;97791.41;5079270;28;20048;-80
2021/04/20 02:14:20;;;;;;;137.63;58.75;;;;;;;6.28;100.00;97790.28;5078853;28;20545;-80
2021/04/20 02:16:46;;;;;;;134.20;57.40;;;;;;;6.36;100.00;97788.06;5079178;28;20390;-81
2021/04/20 02:19:14;;;;;;;141.20;57.72;;;;;;;6.34;100.00;97782.97;5077819;28;20044;-81
2021/04/20 02:21:41;;;;;;;157.70;62.60;;;;;;;6.38;100.00;97792.06;5087711;28;20056;-81
2021/04/20 02:24:12;;;;;;;163.77;62.17;;;;;;;6.40;100.00;97789.09;5086672;28;20048;-79
2021/04/20 02:26:39;;;;;;;154.00;60.50;;;;;;;6.41;100.00;97786.13;5076638;28;20055;-80
2021/04/20 02:29:07;;;;;;;145.32;60.40;;;;;;;6.38;100.00;97781.31;5077296;28;20056;-81
2021/04/20 02:31:35;;;;;;;160.32;62.92;;;;;;;6.40;100.00;97784.50;5078697;28;20051;-81
2021/04/20 02:34:06;;;;;;;156.13;62.60;;;;;;;6.38;100.00;97784.00;5078477;28;20055;-81
2021/04/20 02:36:39;;;;;;;159.68;62.80;;;;;;;6.39;100.00;97782.13;5077632;28;20063;-81
2021/04/20 02:39:06;;;;;;;156.98;63.03;;;;;;;6.34;100.00;97788.34;5076060;28;20067;-80
2021/04/20 02:41:33;;;;;;;166.95;65.47;;;;;;;6.31;100.00;97790.78;5079235;28;20094;-81
2021/04/20 02:44:01;;;;;;;163.98;64.78;;;;;;;6.26;100.00;97786.28;5078472;28;20044;-80
2021/04/20 02:46:28;;;;;;;171.50;63.45;;;;;;;6.23;100.00;97786.81;5079438;28;20567;-81
2021/04/20 02:48:55;;;;;;;175.07;65.93;;;;;;;6.20;100.00;97785.50;5078885;28;20063;-81
2021/04/20 02:51:24;;;;;;;174.48;67.43;;;;;;;6.15;100.00;97779.38;5080646;28;20151;-80
2021/04/20 02:53:50;;;;;;;184.20;68.07;;;;;;;6.08;100.00;97776.22;5081269;28;20053;-81
2021/04/20 02:56:18;;;;;;;184.05;66.97;;;;;;;6.05;100.00;97782.16;5081923;28;20050;-80
2021/04/20 02:58:45;;;;;;;186.32;67.65;;;;;;;6.04;100.00;97785.94;5061881;28;20074;-81
2021/04/20 03:01:23;;;;;;;176.48;67.30;;;;;;;6.03;100.00;97779.75;5080220;28;20040;-80
2021/04/20 03:03:51;;;;;;;181.98;64.70;;;;;;;5.95;100.00;97777.69;5078567;28;20079;-81
2021/04/20 03:06:18;;;;;;;188.85;70.20;;;;;;;5.91;100.00;97767.78;5079151;28;20418;-79
2021/04/20 03:08:47;;;;;;;187.88;69.53;;;;;;;5.94;100.00;97775.25;5079591;28;20045;-81
2021/04/20 03:11:32;;;;;;;188.35;67.72;;;;;;;5.93;100.00;97769.09;5079827;28;20226;-80
2021/04/20 03:14:03;;;;;;;184.63;68.68;;;;;;;5.97;100.00;97769.31;5079761;28;20037;-81
2021/04/20 03:16:35;;;;;;;191.30;69.88;;;;;;;5.96;100.00;97783.84;5063905;28;20043;-81
2021/04/20 03:19:06;;;;;;;184.63;68.75;;;;;;;5.89;100.00;97764.53;5089637;28;20087;-81
2021/04/20 03:21:35;;;;;;;195.35;67.97;;;;;;;5.84;100.00;97776.13;5082516;28;20044;-81
2021/04/20 03:24:02;;;;;;;174.00;65.38;;;;;;;5.79;100.00;97778.03;5078104;28;20533;-79
2021/04/20 03:26:34;;;;;;;181.32;64.88;;;;;;;5.78;100.00;97771.06;5079374;28;20067;-80
2021/04/20 03:29:03;;;;;;;168.20;64.32;;;;;;;5.71;100.00;97771.38;5080106;28;20051;-81
2021/04/20 03:31:30;;;;;;;179.15;66.68;;;;;;;5.66;100.00;97779.47;5094882;28;20041;-81
2021/04/20 03:34:03;;;;;;;182.70;68.78;;;;;;;5.59;100.00;97784.38;5079513;28;20098;-80
2021/04/20 03:36:35;;;;;;;200.50;70.88;;;;;;;5.54;100.00;97777.16;5079980;28;20043;-79
2021/04/20 03:39:10;;;;;;;230.38;76.80;;;;;;;5.62;100.00;97775.75;5086123;28;20098;-79
2021/04/20 03:41:47;;;;;;;226.27;74.50;;;;;;;5.71;100.00;97782.13;5083647;28;20055;-80
2021/04/20 03:44:18;;;;;;;204.13;70.43;;;;;;;5.68;100.00;97771.16;5092964;28;20048;-80
2021/04/20 03:46:46;;;;;;;183.63;67.00;;;;;;;5.67;100.00;97789.16;5091964;28;20033;-80
2021/04/20 03:49:24;;;;;;;183.43;67.97;;;;;;;5.66;100.00;97772.22;5085225;28;20055;-80
2021/04/20 03:51:54;;;;;;;171.68;65.38;;;;;;;5.64;100.00;97773.59;5077373;28;20049;-80
2021/04/20 03:54:21;;;;;;;168.80;62.85;;;;;;;5.61;100.00;97771.44;5074522;28;20647;-80
2021/04/20 03:56:49;;;;;;;171.98;63.75;;;;;;;5.57;100.00;97779.25;5075377;28;20487;-80
2021/04/20 03:59:18;;;;;;;170.00;64.75;;;;;;;5.60;100.00;97772.56;5075928;28;20049;-80
2021/04/20 04:01:48;;;;;;;168.38;63.60;;;;;;;5.66;100.00;97772.22;5076535;28;20052;-80
2021/04/20 04:04:21;;;;;;;163.85;61.65;;;;;;;5.75;100.00;97777.00;5069350;23;20055;-80
2021/04/20 04:06:48;;;;;;;164.88;62.50;;;;;;;5.74;100.00;97778.88;5042259;28;20302;-81
2021/04/20 04:09:17;;;;;;;158.43;62.03;;;;;;;5.77;100.00;97781.00;5059058;28;20049;-78
2021/04/20 04:11:47;;;;;;;158.40;61.83;;;;;;;5.85;100.00;97785.00;5017500;28;20057;-78
2021/04/20 04:14:16;;;;;;;156.07;60.85;;;;;;;5.83;100.00;97777.22;5046617;28;20052;-79
2021/04/20 04:16:46;;;;;;;157.57;61.53;;;;;;;5.91;100.00;97789.28;5048655;28;20029;-79
2021/04/20 04:19:14;;;;;;;146.15;58.45;;;;;;;5.93;100.00;97792.47;5049792;28;20061;-78
2021/04/20 04:21:46;;;;;;;145.70;58.90;;;;;;;5.96;100.00;97792.69;5066386;28;20052;-79
2021/04/20 04:24:16;;;;;;;137.43;56.67;;;;;;;5.97;100.00;97804.25;5033977;28;20489;-78
2021/04/20 04:26:51;;;;;;;150.18;59.53;;;;;;;6.01;100.00;97798.03;5055403;28;20047;-80
2021/04/20 04:29:20;;;;;;;142.40;58.28;;;;;;;6.00;100.00;97801.81;5064872;28;20045;-80
2021/04/20 04:31:50;;;;;;;143.32;57.90;;;;;;;6.04;100.00;97810.91;5053336;28;20052;-78
2021/04/20 04:34:18;;;;;;;141.15;59.38;;;;;;;6.10;100.00;97809.78;5024732;28;20053;-78
2021/04/20 04:36:46;;;;;;;136.68;59.33;;;;;;;6.20;100.00;97817.75;5047713;28;20041;-79
2021/04/20 04:39:16;;;;;;;138.05;58.38;;;;;;;6.23;100.00;97811.03;5026348;28;20065;-79
2021/04/20 04:41:49;;;;;;;131.23;57.92;;;;;;;6.28;100.00;97814.47;5036416;28;20423;-78
2021/04/20 04:44:15;;;;;;;130.43;57.80;;;;;;;6.36;100.00;97817.63;5020592;28;20083;-79
2021/04/20 04:46:45;;;;;;;124.18;55.78;;;;;;;6.45;100.00;97819.44;5055238;28;20037;-79
2021/04/20 04:49:12;;;;;;;127.07;55.78;;;;;;;6.51;100.00;97810.22;5051870;28;20144;-78
2021/04/20 04:51:39;;;;;;;122.10;56.15;;;;;;;6.51;100.00;97804.03;5050091;28;20068;-80
2021/04/20 04:54:11;;;;;;;110.63;52.72;;;;;;;6.58;100.00;97809.91;5015638;28;20048;-78
2021/04/20 04:56:41;;;;;;;121.72;54.47;;;;;;;6.58;100.00;97807.97;5026232;28;20039;-78
2021/04/20 04:59:09;;;;;;;123.13;56.33;;;;;;;6.57;100.00;97801.03;5038917;28;20053;-78
2021/04/20 05:01:37;;;;;;;116.97;53.90;;;;;;;6.89;100.00;97816.56;5058220;28;20117;-78
2021/04/20 05:04:10;;;;;;;109.22;52.50;;;;;;;6.90;100.00;97818.94;5035587;28;20065;-80
2021/04/20 05:06:46;;;;;;;112.10;51.85;;;;;;;6.89;100.00;97811.19;5035147;28;20049;-79
2021/04/20 05:09:18;;;;;;;110.10;51.63;;;;;;;6.82;100.00;97810.69;5022756;28;20049;-79
2021/04/20 05:11:47;;;;;;;111.10;52.22;;;;;;;6.87;100.00;97808.75;5005867;28;20061;-79
2021/04/20 05:14:15;;;;;;;112.47;51.60;;;;;;;6.98;100.00;97808.63;5007206;28;20045;-80
2021/04/20 05:16:48;;;;;;;102.30;51.88;;;;;;;7.03;100.00;97811.28;5040786;28;20045;-79
2021/04/20 05:19:22;;;;;;;105.72;50.92;;;;;;;7.12;100.00;97821.13;5024870;28;20057;-79
2021/04/20 05:21:49;;;;;;;105.37;52.20;;;;;;;7.15;100.00;97806.28;5013602;28;20048;-72
2021/04/20 05:24:18;;;;;;;99.82;49.63;;;;;;;7.18;100.00;97803.00;5011034;28;20046;-72
2021/04/20 05:26:45;;;;;;;103.57;51.05;;;;;;;7.46;100.00;97804.78;5016988;28;20062;-78
2021/04/20 05:29:11;;;;;;;96.88;49.85;;;;;;;7.50;100.00;97800.44;5019782;28;20045;-78
2021/04/20 05:31:39;;;;;;;107.50;50.70;;;;;;;7.47;100.00;97798.31;5022006;28;20056;-78
2021/04/20 05:34:06;;;;;;;98.32;49.13;;;;;;;7.68;100.00;97799.63;5015277;28;20080;-79
2021/04/20 05:36:35;;;;;;;98.65;49.08;;;;;;;7.96;100.00;97803.25;4999059;28;20050;-78
2021/04/20 05:39:08;;;;;;;92.85;47.92;;;;;;;8.11;100.00;97803.00;5015070;28;20137;-77
2021/04/20 05:41:38;;;;;;;93.95;47.05;;;;;;;8.21;100.00;97796.66;5037882;28;20064;-80
2021/04/20 05:44:07;;;;;;;91.93;48.13;;;;;;;8.25;100.00;97795.75;5038492;28;20053;-78
2021/04/20 05:46:38;;;;;;;96.90;47.67;;;;;;;8.28;100.00;97797.09;5015432;28;20045;-78
2021/04/20 05:49:05;;;;;;;91.78;46.08;;;;;;;8.37;100.00;97809.59;5015733;28;20052;-78
2021/04/20 05:51:32;;;;;;;92.35;47.08;;;;;;;8.27;100.00;97796.28;5015768;28;20077;-78
2021/04/20 05:54:01;;;;;;;95.10;47.58;;;;;;;8.20;100.00;97803.13;5033327;28;20075;-79
2021/04/20 05:56:27;;;;;;;91.70;47.85;;;;;;;8.33;100.00;97800.50;5033658;28;20385;-78
2021/04/20 05:58:56;;;;;;;89.60;48.13;;;;;;;8.43;100.00;97800.34;5016815;28;20041;-78
2021/04/20 06:01:25;;;;;;;96.30;48.78;;;;;;;8.45;100.00;97791.94;5040105;28;20073;-79
2021/04/20 06:03:52;;;;;;;93.50;48.95;;;;;;;8.53;100.00;97796.66;5034571;28;20044;-78
2021/04/20 06:06:22;;;;;;;95.22;49.10;;;;;;;8.45;100.00;97805.41;5051287;28;20053;-79
2021/04/20 06:08:51;;;;;;;91.53;48.65;;;;;;;8.48;100.00;97794.03;5052914;28;20044;-78
2021/04/20 06:11:18;;;;;;;88.70;45.88;;;;;;;8.58;100.00;97805.47;5051513;28;20070;-79
2021/04/20 06:13:46;;;;;;;93.93;47.80;;;;;;;8.69;100.00;97809.59;5050990;28;20049;-78
2021/04/20 06:16:13;;;;;;;97.05;47.80;;;;;;;8.69;100.00;97801.47;5053055;28;20049;-79
2021/04/20 06:18:41;;;;;;;93.95;47.72;;;;;;;8.74;100.00;97817.59;5050448;28;20116;-78
2021/04/20 06:21:09;;;;;;;94.40;48.38;;;;;;;8.62;100.00;97805.69;5067478;28;20049;-78
2021/04/20 06:23:36;;;;;;;93.60;47.97;;;;;;;8.78;100.00;97812.38;5067027;28;20048;-79
2021/04/20 06:26:05;;;;;;;91.13;47.22;;;;;;;8.94;100.00;97802.88;5052382;28;20051;-77
2021/04/20 06:28:33;;;;;;;83.30;44.55;;;;;;;8.99;100.00;97796.59;5067833;28;20044;-79
2021/04/20 06:31:02;;;;;;;82.63;45.05;;;;;;;9.08;100.00;97806.41;5053731;28;20041;-79
2021/04/20 06:33:32;;;;;;;81.95;43.30;;;;;;;9.07;100.00;97803.97;5068244;28;20383;-79
2021/04/20 06:36:02;;;;;;;89.30;43.88;;;;;;;9.00;100.00;97804.41;5068629;28;20061;-78
2021/04/20 06:38:29;;;;;;;81.47;44.42;;;;;;;9.14;100.00;97805.19;5034229;28;20040;-79
2021/04/20 06:40:57;;;;;;;82.90;44.33;;;;;;;9.22;100.00;97809.06;5050695;28;20041;-77
2021/04/20 06:43:30;;;;;;;76.05;42.50;;;;;;;9.29;100.00;97814.88;5033182;28;20045;-79
2021/04/20 06:46:12;;;;;;;80.53;42.35;;;;;;;9.44;100.00;97806.47;5091614;28;20040;-78
2021/04/20 06:48:38;;;;;;;75.95;40.65;;;;;;;9.45;100.00;97808.03;5098356;28;20127;-77
2021/04/20 06:51:08;;;;;;;75.15;41.42;;;;;;;9.62;100.00;97807.41;5082920;28;20139;-77
2021/04/20 06:53:41;;;;;;;73.13;40.53;;;;;;;9.92;100.00;97804.81;5083281;28;20687;-77
2021/04/20 06:56:30;;;;;;;74.43;41.15;;;;;;;9.95;100.00;97801.50;5052056;28;20076;-78
2021/04/20 06:59:17;;;;;;;69.57;39.58;;;;;;;10.15;100.00;97802.16;5083788;28;20037;-79
2021/04/20 07:01:48;;;;;;;67.60;38.17;;;;;;;10.43;100.00;97799.00;5083636;28;20392;-78
2021/04/20 07:04:40;;;;;;;68.60;38.45;;;;;;;10.47;100.00;97794.56;5041459;28;20044;-79
2021/04/20 07:07:51;;;;;;;69.03;37.80;;;;;;;10.50;100.00;97801.28;5034507;28;20057;-78
2021/04/20 07:10:25;;;;;;;55.63;32.22;;;;;;;10.30;100.00;97790.94;5013288;28;20539;-78
2021/04/20 07:12:55;;;;;;;60.50;32.88;;;;;;;10.34;100.00;97798.16;5012906;28;20042;-78
2021/04/20 07:15:25;;;;;;;59.65;32.60;;;;;;;10.38;100.00;97801.03;5013884;28;20645;-78
2021/04/20 07:18:06;;;;;;;60.17;33.35;;;;;;;10.31;100.00;97795.25;5031189;28;20099;-79
2021/04/20 07:21:15;;;;;;;59.22;33.90;;;;;;;10.49;100.00;97796.97;5013414;28;20049;-78
2021/04/20 07:24:21;;;;;;;56.85;33.17;;;;;;;10.35;100.00;97793.56;5008961;28;20057;-78
2021/04/20 07:27:13;;;;;;;62.80;32.47;;;;;;;10.23;100.00;97788.69;5009255;28;20046;-77
2021/04/20 07:29:50;;;;;;;54.80;31.27;;;;;;;10.23;100.00;97777.88;5015071;28;20049;-78
2021/04/20 07:32:22;;;;;;;57.25;32.45;;;;;;;10.44;100.00;97789.78;5031539;28;20045;-76
2021/04/20 07:35:15;;;;;;;54.85;31.58;;;;;;;10.16;100.00;97795.63;5042015;28;20063;-79
2021/04/20 07:38:02;;;;;;;59.28;32.03;;;;;;;10.20;100.00;97793.91;5000138;28;20465;-78
2021/04/20 07:40:47;;;;;;;58.65;33.90;;;;;;;10.38;100.00;97785.59;5014047;28;20060;-79
2021/04/20 07:43:43;;;;;;;57.13;32.42;;;;;;;10.39;100.00;97794.50;5012976;28;20049;-79
2021/04/20 07:46:21;;;;;;;66.70;35.08;;;;;;;10.51;100.00;97786.63;4980611;28;20058;-78
2021/04/20 07:48:54;;;;;;;61.92;34.40;;;;;;;10.39;100.00;97786.41;5029914;28;20141;-79
2021/04/20 07:51:36;;;;;;;66.72;35.28;;;;;;;10.42;100.00;97781.19;5029569;28;20583;-79
2021/04/20 07:54:11;;;;;;;62.20;35.03;;;;;;;10.64;100.00;97783.81;5012378;28;20401;-78
2021/04/20 07:56:46;;;;;;;58.00;33.20;;;;;;;10.83;100.00;97785.50;5030218;28;20053;-79
2021/04/20 07:59:19;;;;;;;56.30;34.15;;;;;;;11.07;100.00;97783.22;5012469;28;20111;-76
2021/04/20 08:01:53;;;;;;;58.20;31.92;;;;;;;11.18;100.00;97787.22;5011157;28;20053;-76
2021/04/20 08:04:45;;;;;;;54.00;30.27;;;;;;;11.02;100.00;97784.13;5053012;28;20589;-79
2021/04/20 08:07:29;;;;;;;58.15;30.98;;;;;;;11.13;100.00;97788.16;5030884;28;20416;-80
2021/04/20 08:09:58;;;;;;;54.58;32.35;;;;;;;11.09;100.00;97776.38;5049123;28;20045;-79
2021/04/20 08:12:32;;;;;;;56.33;32.42;;;;;;;11.53;100.00;97779.97;5015226;28;20045;-79
2021/04/20 08:15:25;;;;;;;58.00;33.08;;;;;;;11.40;100.00;97780.91;5032179;28;20041;-78
2021/04/20 08:18:02;;;;;;;63.72;35.45;;;;;;;11.17;100.00;97782.91;5031712;28;20044;-79
2021/04/20 08:20:37;;;;;;;65.18;37.22;;;;;;;11.32;100.00;97789.81;5034019;28;20044;-78
2021/04/20 08:23:05;;;;;;;67.60;36.92;;;;;;;11.75;100.00;97775.22;5052982;28;20045;-80
2021/04/20 08:25:40;;;;;;;69.40;40.10;;;;;;;12.11;100.00;97769.47;5032672;28;20407;-79
2021/04/20 08:28:13;;;;;;;63.67;37.90;;;;;;;12.39;100.00;97770.69;5046476;28;20041;-80
2021/04/20 08:30:48;;;;;;;63.97;39.42;;;;;;;11.86;100.00;97773.78;5031722;28;20140;-79
2021/04/20 08:33:18;;;;;;;68.75;38.60;;;;;;;11.69;100.00;97781.91;5033421;28;20496;-80
2021/04/20 08:35:49;;;;;;;74.15;41.85;;;;;;;11.85;100.00;97766.75;5030572;28;20072;-79
2021/04/20 08:38:34;;;;;;;73.53;41.85;;;;;;;12.11;100.00;97782.22;5031580;28;20049;-78
2021/04/20 08:41:28;;;;;;;77.15;43.17;;;;;;;11.94;100.00;97774.09;5031633;28;20041;-78
2021/04/20 08:44:19;;;;;;;79.78;45.80;;;;;;;12.02;100.00;97773.31;5030337;28;20049;-78
2021/04/20 08:47:10;;;;;;;85.85;47.17;;;;;;;11.95;100.00;97771.06;5034679;28;20041;-78
2021/04/20 08:49:55;;;;;;;79.25;47.03;;;;;;;11.63;100.00;97768.81;5071120;28;20059;-79
2021/04/20 08:52:43;;;;;;;85.85;49.92;;;;;;;11.79;100.00;97762.59;5052208;28;20055;-79
2021/04/20 08:55:30;;;;;;;85.88;50.05;;;;;;;11.78;100.00;97768.34;5070174;28;20106;-79
2021/04/20 08:58:18;;;;;;;84.13;46.60;;;;;;;12.06;100.00;97775.03;5067097;28;20051;-79
2021/04/20 09:00:58;;;;;;;87.25;47.05;;;;;;;12.35;100.00;97764.31;5068535;28;20047;-78
2021/04/20 09:03:51;;;;;;;85.30;50.85;;;;;;;12.27;100.00;97767.84;5050753;28;20357;-79
2021/04/20 09:06:38;;;;;;;85.10;49.80;;;;;;;11.98;100.00;97764.19;5067471;28;20051;-80
2021/04/20 09:09:07;;;;;;;84.93;51.00;;;;;;;11.89;100.00;97766.94;5066961;28;20040;-79
2021/04/20 09:11:45;;;;;;;85.63;50.72;;;;;;;12.28;100.00;97765.94;5051350;28;20071;-79
2021/04/20 09:14:16;;;;;;;84.25;50.22;;;;;;;12.30;100.00;97763.69;5068831;28;20045;-79
2021/04/20 09:16:59;;;;;;;75.95;47.65;;;;;;;12.23;100.00;97766.88;5051052;28;20037;-78
2021/04/20 09:19:34;;;;;;;77.78;48.05;;;;;;;11.97;100.00;97771.56;5068896;28;20594;-78
2021/04/20 09:22:07;;;;;;;86.43;48.67;;;;;;;11.58;100.00;97766.25;5068304;28;20044;-78
2021/04/20 09:24:42;;;;;;;87.55;50.28;;;;;;;11.47;100.00;97768.47;5050353;28;20048;-79
2021/04/20 09:27:21;;;;;;;88.97;49.95;;;;;;;11.77;100.00;97767.56;5050189;28;20040;-79
2021/04/20 09:29:56;;;;;;;82.20;46.97;;;;;;;12.27;100.00;97765.13;5050683;28;20142;-77
2021/04/20 09:32:35;;;;;;;81.57;45.75;;;;;;;12.12;100.00;97760.22;5067162;28;20451;-78
2021/04/20 09:35:04;;;;;;;72.93;43.60;;;;;;;12.29;100.00;97760.16;5051484;28;20044;-78
2021/04/20 09:37:35;;;;;;;73.95;44.40;;;;;;;12.47;100.00;97759.00;5066692;28;20094;-77
2021/04/20 09:40:03;;;;;;;74.85;44.28;;;;;;;12.52;100.00;97766.97;5049793;28;20060;-78
2021/04/20 09:42:30;;;;;;;74.82;42.78;;;;;;;12.63;100.00;97764.72;5068010;28;20530;-77
2021/04/20 09:45:11;;;;;;;67.35;42.40;;;;;;;13.15;100.00;97754.44;5049592;28;20071;-78
2021/04/20 09:47:53;;;;;;;63.70;40.95;;;;;;;13.51;100.00;97767.50;5068187;28;20071;-79
2021/04/20 09:50:31;;;;;;;67.75;41.05;;;;;;;13.50;100.00;97768.63;5068160;28;20056;-77
2021/04/20 09:53:21;;;;;;;65.75;42.10;;;;;;;13.71;100.00;97756.63;5067931;28;20151;-77
2021/04/20 09:56:13;;;;;;;66.97;41.33;;;;;;;14.42;100.00;97758.44;5054267;28;20040;-78
2021/04/20 09:58:43;;;;;;;65.35;40.70;;;;;;;14.56;100.00;97759.69;5035091;28;20364;-77
2021/04/20 10:01:32;;;;;;;64.95;40.20;;;;;;;14.71;100.00;97761.78;5053049;28;20091;-79
2021/04/20 10:06:39;;;;;;;63.42;41.28;;;;;;;13.85;100.00;97761.81;5040719;28;20050;-78
2021/04/20 10:09:22;;;;;;;65.68;41.28;;;;;;;14.00;100.00;97757.69;5028017;28;20040;-78
2021/04/20 10:12:08;;;;;;;63.97;40.90;;;;;;;14.52;100.00;97755.28;5051911;28;20056;-79
2021/04/20 10:14:47;;;;;;;61.17;39.10;;;;;;;14.27;100.00;97757.88;5023042;28;20041;-79
2021/04/20 10:17:24;;;;;;;63.67;37.97;;;;;;;14.27;100.00;97749.72;5063970;28;20044;-76
2021/04/20 10:20:06;;;;;;;66.10;38.25;;;;;;;13.97;100.00;97755.63;5071662;28;20508;-77
2021/04/20 10:22:56;;;;;;;65.18;36.67;;;;;;;15.95;100.00;97755.56;5071449;28;20100;-76
2021/04/20 10:25:33;;;;;;;54.50;35.38;;;;;;;15.92;100.00;97745.34;5058998;28;20492;-78
2021/04/20 10:28:16;;;;;;;55.35;36.35;;;;;;;15.45;100.00;97753.31;5059335;28;20443;-79
2021/04/20 10:30:47;;;;;;;50.40;33.47;;;;;;;15.52;100.00;97741.81;5053752;28;20044;-78
2021/04/20 10:33:22;;;;;;;50.47;33.42;;;;;;;15.21;100.00;97755.22;5053665;28;20140;-78
2021/04/20 10:35:52;;;;;;;45.88;30.35;;;;;;;16.46;100.00;97734.75;5051242;28;20333;-78
2021/04/20 10:38:23;;;;;;;42.72;29.38;;;;;;;17.09;100.00;97729.31;5037210;28;20413;-78
2021/04/20 10:40:53;;;;;;;40.60;28.27;;;;;;;17.05;100.00;97731.97;5056651;28;20423;-79
2021/04/20 10:43:22;;;;;;;44.17;28.35;;;;;;;17.99;97.28;97727.06;5037674;28;20053;-79
2021/04/20 10:45:51;;;;;;;43.45;27.52;;;;;;;17.68;98.22;97726.41;5059938;28;20037;-79
2021/04/20 10:48:26;;;;;;;44.75;29.73;;;;;;;16.90;100.00;97708.16;5060924;28;20048;-78
2021/04/20 10:50:56;;;;;;;49.75;31.33;;;;;;;16.88;100.00;97715.91;5053532;28;20048;-79
2021/04/20 10:53:30;;;;;;;48.75;29.50;;;;;;;18.89;82.46;97722.84;5035318;28;20037;-78
2021/04/20 10:56:02;;;;;;;45.28;28.63;;;;;;;17.20;100.00;97720.22;5035914;28;20471;-78
2021/04/20 10:58:30;;;;;;;41.13;29.80;;;;;;;16.77;100.00;97709.41;5055045;28;20037;-79
2021/04/20 11:00:57;;;;;;;46.40;28.95;;;;;;;17.24;100.00;97709.38;5055951;28;20048;-80
2021/04/20 11:03:32;;;;;;;40.67;27.05;;;;;;;17.66;93.71;97712.25;5036489;28;20055;-80
2021/04/20 11:05:59;;;;;;;36.72;25.45;;;;;;;18.77;75.19;97698.38;5039178;28;20496;-79
2021/04/20 11:08:39;;;;;;;34.47;24.50;;;;;;;20.46;62.38;97688.94;5056681;28;20051;-79
2021/04/20 11:11:20;;;;;;;37.75;25.80;;;;;;;20.16;59.53;97696.41;5038938;28;20546;-79
2021/04/20 11:13:47;;;;;;;35.33;24.88;;;;;;;21.68;54.54;97693.00;5055555;28;20049;-78
2021/04/20 11:16:19;;;;;;;35.25;23.42;;;;;;;23.07;48.72;97682.00;5055468;28;20451;-78
2021/04/20 11:18:51;;;;;;;32.58;23.17;;;;;;;24.17;45.50;97690.81;5056005;28;20040;-76
2021/04/20 11:21:22;;;;;;;28.98;21.48;;;;;;;23.32;43.59;97681.94;5040036;28;20048;-78
2021/04/20 11:24:03;;;;;;;30.65;21.70;;;;;;;21.04;47.45;97678.81;5036264;28;20508;-79
2021/04/20 11:26:37;;;;;;;31.83;21.88;;;;;;;20.17;55.17;97681.53;5038712;28;20487;-78
2021/04/20 11:29:11;;;;;;;34.47;24.30;;;;;;;18.19;68.10;97667.56;5056251;28;20099;-78
2021/04/20 11:31:45;;;;;;;37.05;25.77;;;;;;;17.25;100.00;97670.69;5054644;28;20032;-77
2021/04/20 11:34:25;;;;;;;38.85;26.17;;;;;;;16.59;100.00;97676.16;5038036;28;20056;-78
2021/04/20 11:37:01;;;;;;;37.25;25.33;;;;;;;16.10;100.00;97670.16;5046011;28;20041;-80
2021/04/20 11:39:41;;;;;;;36.43;26.27;;;;;;;15.94;100.00;97663.88;5035903;28;20041;-79